West Copake, New York
Current Conditions -  °F | °C
As of 12:54 AM on Sunday 23 Nov 2014 (Local Time) from KPSF Reporting Station
Light Rain Light Rain  
Wind Chill: 27°   Ceiling: 2800
Heat Index: 34°   Visibility: 8mi
Dew Point: 28°   Wind: 9mph
Humidity: 79%   Direction: 240°WSW
Pressure: 30.07"   Gusts: NA
Location:  42.1°N, 73.58°W
Report Text: KPSF 230554Z AUTO 24008KT 8SM -RA OVC028 01/M02 A3007 RMK AO2 UPB17E20 SLP191 P0001 60007 T00111022 10028 20006 53006 $
Loading
Personal Weather Stations






























Interactive Weather Map New forecast layout! Learn more

10-Day Weather Forecast

Advertisements
Track Severe Weather on mobile